createdAt,value
2023-02-09T00:00:13.223Z,3.12
2023-02-09T00:02:41.453Z,0.80
2023-02-09T00:05:10.796Z,1.98
2023-02-09T00:07:39.423Z,0.77
2023-02-09T00:10:07.292Z,2.80
2023-02-09T00:12:56.948Z,1.55
2023-02-09T00:15:24.843Z,2.67
2023-02-09T00:17:54.130Z,0.57
2023-02-09T00:20:22.156Z,0.70
2023-02-09T00:22:49.644Z,2.05
2023-02-09T00:25:17.733Z,2.20
2023-02-09T00:27:45.618Z,1.70
2023-02-09T00:30:13.768Z,2.17
2023-02-09T00:32:46.306Z,0.25
2023-02-09T00:35:15.334Z,3.67
2023-02-09T00:37:43.018Z,0.60
2023-02-09T00:40:12.106Z,1.73
2023-02-09T00:42:45.925Z,1.58
2023-02-09T00:45:14.051Z,0.95
2023-02-09T00:47:41.903Z,0.35
2023-02-09T00:50:09.699Z,5.72
2023-02-09T00:52:37.945Z,2.12
2023-02-09T00:55:06.111Z,2.65
2023-02-09T00:57:33.823Z,2.47
2023-02-09T01:00:02.855Z,1.48
2023-02-09T01:02:31.291Z,1.42
2023-02-09T01:05:00.098Z,2.65
2023-02-09T01:07:28.078Z,0.40
2023-02-09T01:09:56.301Z,0.62
2023-02-09T01:12:23.848Z,2.08
2023-02-09T01:14:52.259Z,1.65
2023-02-09T01:17:20.082Z,0.82
2023-02-09T01:19:51.894Z,0.82
2023-02-09T01:22:21.308Z,4.28
2023-02-09T01:24:50.604Z,1.95
2023-02-09T01:27:22.013Z,0.50
2023-02-09T01:29:49.759Z,0.95
2023-02-09T01:32:17.308Z,0.10
2023-02-09T01:34:45.421Z,1.10
2023-02-09T01:37:13.386Z,0.30
2023-02-09T01:39:41.474Z,1.00
2023-02-09T01:42:20.285Z,1.23
2023-02-09T01:45:23.706Z,3.50
2023-02-09T01:47:59.211Z,1.75
2023-02-09T01:50:27.678Z,0.10
2023-02-09T01:52:55.710Z,2.28
2023-02-09T01:55:26.955Z,0.15
2023-02-09T01:58:01.804Z,0.40
2023-02-09T02:00:31.205Z,0.20
2023-02-09T02:03:05.219Z,0.75
2023-02-09T02:05:35.711Z,1.12
2023-02-09T02:08:25.455Z,1.52
2023-02-09T02:10:53.770Z,1.08
2023-02-09T02:13:23.912Z,2.72
2023-02-09T02:16:07.348Z,2.97
2023-02-09T02:19:01.916Z,2.30
2023-02-09T02:22:11.851Z,1.30
2023-02-09T02:25:13.078Z,2.28
2023-02-09T02:27:45.643Z,1.00
2023-02-09T02:30:38.272Z,1.65
2023-02-09T02:33:21.166Z,1.58
2023-02-09T02:38:44.176Z,1.85
2023-02-09T02:41:52.302Z,2.05
2023-02-09T02:48:41.140Z,1.40
2023-02-09T02:51:15.016Z,0.68
2023-02-09T02:53:44.111Z,0.10
2023-02-09T02:56:22.461Z,1.08
2023-02-09T02:58:52.573Z,1.95
2023-02-09T03:01:22.832Z,0.20
2023-02-09T03:03:52.029Z,1.37
2023-02-09T03:06:21.612Z,0.75
2023-02-09T03:08:55.846Z,0.85
2023-02-09T03:11:28.446Z,1.02
2023-02-09T03:14:08.392Z,0.35
2023-02-09T03:16:46.979Z,0.37
2023-02-09T03:19:43.832Z,0.45
2023-02-09T03:22:32.945Z,0.40
2023-02-09T03:25:06.445Z,0.65
2023-02-09T03:27:41.602Z,0.55
2023-02-09T03:30:12.340Z,0.17
2023-02-09T03:32:41.353Z,3.95
2023-02-09T03:35:11.907Z,0.15
2023-02-09T03:37:39.629Z,4.32
2023-02-09T03:40:08.786Z,0.20
2023-02-09T03:42:37.121Z,0.98
2023-02-09T03:45:08.052Z,0.32
2023-02-09T03:47:35.630Z,0.00
2023-02-09T03:50:07.012Z,0.62
2023-02-09T03:52:35.071Z,2.03
2023-02-09T03:55:03.494Z,0.45
2023-02-09T03:57:31.101Z,2.42
2023-02-09T03:59:59.828Z,2.03
2023-02-09T04:02:28.087Z,1.02
2023-02-09T04:04:56.603Z,1.23
2023-02-09T04:07:24.339Z,0.68
2023-02-09T04:09:53.124Z,0.62
2023-02-09T04:12:21.515Z,1.37
2023-02-09T04:14:49.438Z,2.08
2023-02-09T04:17:17.427Z,0.43
2023-02-09T04:19:53.388Z,0.98
2023-02-09T04:22:21.576Z,0.85
2023-02-09T04:24:49.432Z,0.55
2023-02-09T04:27:21.097Z,0.77
2023-02-09T04:29:49.306Z,0.35
2023-02-09T04:32:17.034Z,1.33
2023-02-09T04:34:44.937Z,1.25
2023-02-09T04:37:12.885Z,1.40
2023-02-09T04:39:41.056Z,0.95
2023-02-09T04:42:10.179Z,0.50
2023-02-09T04:44:38.115Z,1.02
2023-02-09T04:47:05.820Z,1.75
2023-02-09T04:49:34.110Z,0.20
2023-02-09T04:52:06.560Z,0.55
2023-02-09T04:54:34.274Z,0.40
2023-02-09T04:57:23.976Z,1.45
2023-02-09T04:59:51.980Z,0.08
2023-02-09T05:02:21.050Z,0.90
2023-02-09T05:04:49.303Z,3.10
2023-02-09T05:07:17.868Z,1.65
2023-02-09T05:09:46.958Z,0.95
2023-02-09T05:12:16.884Z,1.08
2023-02-09T05:14:49.951Z,1.48
2023-02-09T05:17:23.053Z,2.05
2023-02-09T05:19:56.867Z,1.23
2023-02-09T05:22:26.265Z,0.85
2023-02-09T05:25:03.815Z,1.17
2023-02-09T05:27:33.761Z,0.70
2023-02-09T05:30:08.218Z,1.70
2023-02-09T05:32:39.075Z,1.85
2023-02-09T05:35:08.512Z,1.90
2023-02-09T05:37:38.471Z,0.45
2023-02-09T05:40:07.294Z,0.82
2023-02-09T05:42:36.891Z,0.45
2023-02-09T05:45:05.751Z,3.33
2023-02-09T05:47:40.961Z,1.02
2023-02-09T05:50:12.908Z,2.65
2023-02-09T05:52:41.598Z,2.90
2023-02-09T05:55:14.369Z,2.90
2023-02-09T05:57:42.512Z,1.35
2023-02-09T06:00:12.824Z,1.55
2023-02-09T06:02:46.469Z,0.25
2023-02-09T06:05:22.210Z,0.75
2023-02-09T06:08:13.829Z,0.30
2023-02-09T06:10:44.788Z,0.35
2023-02-09T06:13:15.328Z,2.00
2023-02-09T06:15:47.875Z,1.05
2023-02-09T06:18:16.855Z,2.05
2023-02-09T06:20:45.425Z,1.12
2023-02-09T06:23:17.843Z,1.27
2023-02-09T06:25:53.289Z,2.80
2023-02-09T06:28:21.951Z,1.12
2023-02-09T06:30:52.549Z,2.97
2023-02-09T06:33:25.104Z,3.35
2023-02-09T06:36:00.796Z,0.32
2023-02-09T06:38:37.918Z,2.10
2023-02-09T06:41:07.234Z,0.10
2023-02-09T06:43:36.886Z,2.25
2023-02-09T06:46:10.178Z,1.77
2023-02-09T06:48:39.734Z,2.05
2023-02-09T06:51:15.505Z,1.08
2023-02-09T06:53:50.253Z,3.83
2023-02-09T06:56:21.580Z,1.55
2023-02-09T07:01:27.281Z,4.32
2023-02-09T07:03:56.819Z,2.15
2023-02-09T07:06:26.115Z,2.05
2023-02-09T07:08:57.783Z,2.20
2023-02-09T07:11:30.860Z,0.68
2023-02-09T07:14:04.570Z,2.72
2023-02-09T07:16:38.900Z,1.77
2023-02-09T07:21:40.682Z,0.32
2023-02-09T07:24:09.834Z,1.17
2023-02-09T07:26:39.990Z,1.83
2023-02-09T07:29:14.734Z,2.45
2023-02-09T07:31:43.306Z,1.27
2023-02-09T07:34:12.709Z,1.62
2023-02-09T07:36:47.741Z,0.85
2023-02-09T07:39:19.206Z,1.85
2023-02-09T07:41:54.033Z,0.68
2023-02-09T07:44:25.330Z,1.65
2023-02-09T07:46:55.711Z,4.95
2023-02-09T07:49:44.924Z,4.15
2023-02-09T07:54:55.860Z,3.50
2023-02-09T07:57:24.162Z,1.02
2023-02-09T07:59:57.959Z,0.00
2023-02-09T08:02:36.436Z,0.80
2023-02-09T08:05:16.747Z,1.00
2023-02-09T08:07:49.762Z,0.50
2023-02-09T08:10:19.712Z,1.45
2023-02-09T08:13:00.527Z,0.40
2023-02-09T08:15:46.323Z,1.20
2023-02-09T08:18:19.251Z,0.93
2023-02-09T08:20:50.336Z,0.37
2023-02-09T08:23:27.221Z,1.55
2023-02-09T08:25:57.466Z,0.05
2023-02-09T08:28:43.291Z,0.82
2023-02-09T08:31:17.375Z,0.10
2023-02-09T08:33:51.155Z,0.30
2023-02-09T08:39:07.795Z,0.82
2023-02-09T08:41:39.773Z,0.55
2023-02-09T08:44:10.018Z,2.45
2023-02-09T08:46:38.804Z,2.90
2023-02-09T08:49:07.143Z,1.17
2023-02-09T08:51:35.821Z,1.10
2023-02-09T08:54:05.474Z,0.62
2023-02-09T08:56:38.860Z,0.90
2023-02-09T08:59:10.136Z,0.75
2023-02-09T09:01:47.480Z,0.90
2023-02-09T09:07:03.790Z,1.08
2023-02-09T09:09:36.811Z,0.17
2023-02-09T09:12:05.312Z,1.25
2023-02-09T09:17:17.366Z,1.83
2023-02-09T09:19:52.775Z,1.90
2023-02-09T09:22:35.096Z,0.60
2023-02-09T09:25:06.969Z,0.30
2023-02-09T09:27:43.923Z,1.80
2023-02-09T09:30:16.353Z,2.70
2023-02-09T09:32:45.872Z,1.58
2023-02-09T09:35:15.959Z,1.17
2023-02-09T09:37:47.771Z,1.30
2023-02-09T09:40:23.789Z,0.15
2023-02-09T09:42:55.949Z,1.33
2023-02-09T09:45:35.339Z,2.22
2023-02-09T09:48:14.879Z,2.42
2023-02-09T09:50:44.260Z,0.93
2023-02-09T09:53:38.775Z,0.98
2023-02-09T09:56:12.210Z,0.35
2023-02-09T09:58:50.266Z,1.48
2023-02-09T10:01:31.095Z,0.20
2023-02-09T10:04:11.804Z,0.93
2023-02-09T10:09:30.052Z,1.75
2023-02-09T10:12:08.724Z,1.33
2023-02-09T10:14:40.196Z,1.35
2023-02-09T10:17:17.248Z,1.27
2023-02-09T10:25:41.779Z,2.58
2023-02-09T10:28:25.998Z,2.80
2023-02-09T10:30:57.851Z,1.40
2023-02-09T10:33:39.955Z,1.60
2023-02-09T10:36:52.984Z,2.15
2023-02-09T10:39:25.063Z,0.60
2023-02-09T10:41:55.963Z,0.20
2023-02-09T10:47:21.851Z,1.05
2023-02-09T10:50:01.369Z,0.65
2023-02-09T10:52:36.990Z,1.92
2023-02-09T10:55:22.345Z,2.28
2023-02-09T10:57:53.687Z,2.00
2023-02-09T11:00:32.978Z,1.70
2023-02-09T11:03:04.797Z,0.75
2023-02-09T11:05:36.047Z,1.17
2023-02-09T11:08:25.772Z,1.23
2023-02-09T11:11:05.865Z,0.77
2023-02-09T11:13:35.853Z,0.68
2023-02-09T11:16:32.928Z,0.55
2023-02-09T11:19:12.955Z,0.60
2023-02-09T11:22:03.826Z,0.43
2023-02-09T11:25:14.794Z,1.08
2023-02-09T11:27:59.074Z,0.75
2023-02-09T11:30:40.346Z,0.37
2023-02-09T11:33:33.865Z,0.60
2023-02-09T11:36:30.517Z,0.30
2023-02-09T11:39:33.722Z,0.77
2023-02-09T11:42:27.352Z,0.75
2023-02-09T11:48:20.769Z,0.77
2023-02-09T11:51:11.015Z,0.35
2023-02-09T11:54:07.704Z,0.10
2023-02-09T11:56:42.280Z,1.42
2023-02-09T11:59:24.448Z,2.85
2023-02-09T12:02:09.997Z,2.05
2023-02-09T12:04:55.595Z,1.33
2023-02-09T12:07:42.270Z,0.50
2023-02-09T12:10:30.560Z,2.60
2023-02-09T12:13:05.736Z,1.33
2023-02-09T12:15:42.596Z,1.20
2023-02-09T12:18:20.748Z,0.68
2023-02-09T12:21:08.801Z,1.40
2023-02-09T12:23:41.090Z,1.08
2023-02-09T12:26:41.050Z,1.45
2023-02-09T12:32:50.710Z,3.60
2023-02-09T12:35:39.019Z,1.33
2023-02-09T12:38:18.735Z,1.98
2023-02-09T12:41:07.218Z,1.35
2023-02-09T12:43:39.277Z,1.35
2023-02-09T12:46:24.793Z,0.30
2023-02-09T12:48:59.733Z,0.90
2023-02-09T12:51:56.708Z,1.12
2023-02-09T12:54:33.747Z,0.30
2023-02-09T12:57:16.591Z,2.33
2023-02-09T13:00:00.059Z,1.42
2023-02-09T13:02:50.824Z,0.40
2023-02-09T13:05:26.716Z,1.73
2023-02-09T13:08:06.748Z,0.73
2023-02-09T13:10:43.695Z,1.45
2023-02-09T13:13:39.724Z,0.55
2023-02-09T13:19:07.548Z,0.85
2023-02-09T13:24:31.242Z,2.50
2023-02-09T13:27:13.773Z,0.57
2023-02-09T13:29:51.111Z,1.25
2023-02-09T13:32:43.141Z,1.15
2023-02-09T13:35:26.437Z,0.82
2023-02-09T13:38:01.757Z,2.05
2023-02-09T13:40:40.947Z,2.95
2023-02-09T13:43:24.379Z,1.50
2023-02-09T13:45:59.112Z,1.33
2023-02-09T13:48:38.842Z,1.67
2023-02-09T13:51:27.692Z,0.93
2023-02-09T13:56:39.586Z,0.90
2023-02-09T13:59:13.771Z,0.88
2023-02-09T14:01:49.757Z,0.30
2023-02-09T14:04:29.087Z,1.85
2023-02-09T14:09:57.889Z,0.35
2023-02-09T14:13:00.046Z,1.62
2023-02-09T14:16:00.762Z,2.28
2023-02-09T14:18:51.703Z,1.73
2023-02-09T14:21:26.766Z,1.92
2023-02-09T14:23:57.790Z,0.90
2023-02-09T14:26:53.063Z,1.30
2023-02-09T14:29:33.760Z,0.55
2023-02-09T14:32:33.551Z,0.55
2023-02-09T14:35:35.035Z,0.98
2023-02-09T14:38:40.170Z,1.37
2023-02-09T14:41:28.773Z,1.65
2023-02-09T14:44:05.368Z,0.28
2023-02-09T14:46:59.995Z,0.35
2023-02-09T14:52:15.616Z,1.55
2023-02-09T14:54:47.777Z,0.28
2023-02-09T14:57:24.930Z,2.15
2023-02-09T14:59:58.758Z,0.13
2023-02-09T15:05:23.742Z,2.20
2023-02-09T15:08:07.677Z,0.75
2023-02-09T15:10:38.763Z,3.12
2023-02-09T15:13:25.845Z,4.50
2023-02-09T15:16:04.919Z,4.00
2023-02-09T15:18:37.545Z,2.12
2023-02-09T15:21:06.725Z,1.07
2023-02-09T15:23:35.278Z,0.05
2023-02-09T15:26:20.342Z,1.45
2023-02-09T15:28:52.166Z,7.32
2023-02-09T15:31:30.030Z,22.55
2023-02-09T15:34:15.672Z,20.05
2023-02-09T15:36:48.280Z,11.35
2023-02-09T15:39:28.378Z,4.65
2023-02-09T15:42:08.748Z,5.43
2023-02-09T15:44:59.165Z,14.95
2023-02-09T15:47:53.771Z,12.73
2023-02-09T15:50:28.535Z,5.10
2023-02-09T15:52:58.664Z,3.08
2023-02-09T15:58:04.152Z,2.25
2023-02-09T16:00:37.781Z,0.80
2023-02-09T16:03:17.172Z,2.90
2023-02-09T16:06:03.889Z,0.65
2023-02-09T16:11:28.647Z,1.00
2023-02-09T16:14:02.181Z,1.40
2023-02-09T16:19:50.260Z,1.02
2023-02-09T16:22:22.673Z,2.00
2023-02-09T16:27:25.355Z,3.75
2023-02-09T16:29:53.987Z,2.33
2023-02-09T16:32:23.992Z,3.08
2023-02-09T16:34:52.072Z,1.92
2023-02-09T16:37:38.000Z,2.08
2023-02-09T16:40:24.435Z,1.90
2023-02-09T16:42:52.818Z,0.40
2023-02-09T16:45:20.574Z,1.55
2023-02-09T16:47:54.259Z,1.45
2023-02-09T16:53:17.709Z,1.90
2023-02-09T16:55:49.685Z,1.65
2023-02-09T16:58:18.768Z,2.47
2023-02-09T17:00:50.007Z,1.95
2023-02-09T17:03:23.534Z,0.98
2023-02-09T17:05:53.442Z,2.72
2023-02-09T17:08:31.679Z,1.73
2023-02-09T17:11:01.690Z,2.83
2023-02-09T17:13:30.938Z,2.03
2023-02-09T17:16:01.248Z,13.23
2023-02-09T17:18:33.290Z,11.48
2023-02-09T17:21:25.106Z,8.82
2023-02-09T17:23:54.585Z,4.55
2023-02-09T17:26:25.487Z,2.15
2023-02-09T17:28:53.844Z,2.62
2023-02-09T17:31:27.703Z,1.42
2023-02-09T17:33:58.033Z,2.50
2023-02-09T17:36:28.315Z,1.17
2023-02-09T17:38:58.566Z,3.40
2023-02-09T17:41:37.150Z,3.53
2023-02-09T17:44:26.522Z,3.15
2023-02-09T17:46:59.278Z,5.12
2023-02-09T17:49:27.709Z,2.67
2023-02-09T17:51:55.198Z,6.45
2023-02-09T17:54:22.771Z,2.80
2023-02-09T17:56:50.771Z,3.95
2023-02-09T17:59:20.240Z,1.27
2023-02-09T18:01:50.303Z,5.68
2023-02-09T18:04:21.100Z,3.15
2023-02-09T18:06:48.703Z,5.57
2023-02-09T18:09:16.885Z,4.25
2023-02-09T18:11:44.632Z,4.40
2023-02-09T18:14:13.571Z,3.35
2023-02-09T18:16:42.772Z,4.03
2023-02-09T18:19:12.483Z,3.60
2023-02-09T18:21:47.397Z,3.42
2023-02-09T18:24:15.996Z,1.80
2023-02-09T18:26:43.455Z,3.22
2023-02-09T18:29:11.007Z,2.55
2023-02-09T18:31:39.270Z,4.30
2023-02-09T18:34:07.926Z,2.47
2023-02-09T18:36:36.149Z,2.80
2023-02-09T18:39:04.730Z,4.40
2023-02-09T18:41:32.768Z,4.57
2023-02-09T18:44:02.819Z,3.83
2023-02-09T18:46:30.659Z,1.20
2023-02-09T18:48:58.892Z,5.20
2023-02-09T18:51:26.546Z,3.55
2023-02-09T18:53:54.511Z,2.62
2023-02-09T18:56:25.692Z,5.03
2023-02-09T18:58:53.311Z,1.08
2023-02-09T19:01:23.539Z,4.35
2023-02-09T19:03:53.170Z,1.85
2023-02-09T19:06:22.308Z,4.32
2023-02-09T19:08:51.623Z,3.33
2023-02-09T19:11:21.733Z,2.12
2023-02-09T19:14:09.134Z,1.70
2023-02-09T19:16:37.566Z,3.53
2023-02-09T19:19:05.725Z,1.83
2023-02-09T19:21:33.252Z,2.15
2023-02-09T19:24:08.758Z,0.75
2023-02-09T19:26:37.090Z,3.05
2023-02-09T19:29:06.315Z,1.42
2023-02-09T19:31:33.870Z,1.98
2023-02-09T19:34:01.832Z,3.20
2023-02-09T19:36:29.360Z,1.60
2023-02-09T19:38:57.453Z,4.57
2023-02-09T19:41:25.738Z,2.20
2023-02-09T19:43:57.564Z,1.67
2023-02-09T19:46:26.015Z,1.10
2023-02-09T19:48:53.934Z,0.75
2023-02-09T19:51:22.269Z,5.85
2023-02-09T19:53:50.717Z,1.92
2023-02-09T19:56:23.680Z,3.95
2023-02-09T19:58:52.019Z,3.90
2023-02-09T20:01:20.346Z,4.40
2023-02-09T20:03:49.648Z,2.85
2023-02-09T20:06:18.322Z,2.35
2023-02-09T20:08:48.605Z,1.48
2023-02-09T20:11:19.807Z,3.25
2023-02-09T20:13:53.906Z,1.87
2023-02-09T20:16:24.366Z,2.70
2023-02-09T20:18:56.055Z,3.05
2023-02-09T20:21:24.502Z,1.98
2023-02-09T20:23:56.119Z,1.85
2023-02-09T20:26:29.540Z,1.25
2023-02-09T20:28:57.918Z,2.47
2023-02-09T20:31:28.786Z,1.87
2023-02-09T20:33:56.457Z,0.73
2023-02-09T20:36:25.609Z,3.25
2023-02-09T20:38:53.523Z,0.95
2023-02-09T20:41:21.170Z,2.12
2023-02-09T20:44:07.452Z,1.65
2023-02-09T20:46:54.556Z,2.45
2023-02-09T20:49:23.917Z,0.80
2023-02-09T20:51:52.165Z,3.28
2023-02-09T20:54:19.784Z,2.25
2023-02-09T20:56:47.659Z,2.78
2023-02-09T20:59:15.990Z,4.87
2023-02-09T21:01:43.616Z,3.70
2023-02-09T21:04:11.237Z,3.55
2023-02-09T21:06:39.365Z,2.05
2023-02-09T21:09:08.144Z,1.27
2023-02-09T21:11:36.009Z,1.58
2023-02-09T21:14:04.386Z,4.20
2023-02-09T21:16:32.348Z,2.62
2023-02-09T21:19:00.492Z,4.10
2023-02-09T21:21:29.471Z,3.78
2023-02-09T21:23:57.029Z,1.77
2023-02-09T21:26:24.565Z,3.35
2023-02-09T21:28:56.637Z,2.10
2023-02-09T21:31:26.909Z,0.62
2023-02-09T21:33:54.900Z,1.87
2023-02-09T21:36:22.774Z,1.80
2023-02-09T21:38:50.459Z,0.85
2023-02-09T21:41:40.738Z,2.92
2023-02-09T21:44:10.090Z,0.73
2023-02-09T21:46:37.866Z,2.42
2023-02-09T21:49:05.571Z,1.80
2023-02-09T21:51:33.308Z,0.40
2023-02-09T21:54:01.310Z,1.12
2023-02-09T21:56:28.806Z,1.00
2023-02-09T21:58:56.281Z,0.45
2023-02-09T22:01:24.739Z,0.98
2023-02-09T22:03:57.205Z,1.05
2023-02-09T22:06:25.685Z,0.52
2023-02-09T22:08:53.796Z,0.10
2023-02-09T22:11:21.414Z,1.23
2023-02-09T22:13:52.925Z,0.70
2023-02-09T22:16:22.086Z,1.70
2023-02-09T22:18:50.059Z,1.37
2023-02-09T22:21:44.598Z,0.35
2023-02-09T22:24:24.292Z,1.75
2023-02-09T22:27:15.516Z,2.10
2023-02-09T22:29:54.726Z,0.43
2023-02-09T22:32:45.553Z,1.10
2023-02-09T22:35:24.730Z,0.50
2023-02-09T22:38:15.727Z,0.77
2023-02-09T22:40:54.732Z,1.30
2023-02-09T22:43:45.486Z,3.47
2023-02-09T22:46:26.812Z,4.50
2023-02-09T22:49:20.228Z,0.60
2023-02-09T22:51:59.718Z,2.55
2023-02-09T22:54:50.740Z,1.48
2023-02-09T22:57:29.702Z,1.92
2023-02-09T23:00:07.749Z,2.65
2023-02-09T23:02:36.193Z,3.10
2023-02-09T23:05:04.698Z,2.83
2023-02-09T23:07:32.392Z,2.95
2023-02-09T23:09:59.965Z,1.02
2023-02-09T23:12:28.235Z,3.40
2023-02-09T23:14:55.629Z,2.90
2023-02-09T23:17:23.380Z,2.22
2023-02-09T23:19:51.143Z,2.50
2023-02-09T23:22:18.746Z,2.95
2023-02-09T23:24:46.397Z,2.03
2023-02-09T23:27:14.590Z,2.00
2023-02-09T23:29:42.022Z,0.85
2023-02-09T23:32:09.609Z,3.12
2023-02-09T23:34:37.733Z,0.43
2023-02-09T23:37:13.553Z,2.20
2023-02-09T23:39:46.700Z,0.52
2023-02-09T23:42:14.120Z,3.05
2023-02-09T23:44:43.961Z,0.77
2023-02-09T23:47:12.048Z,1.58
2023-02-09T23:49:39.902Z,2.35
2023-02-09T23:52:07.735Z,0.70
2023-02-09T23:54:35.550Z,2.45
2023-02-09T23:57:03.351Z,2.03
2023-02-09T23:59:31.242Z,0.45
